Time;durP1;ratioP1;P1;durP2;ratioP2;P2;SDS_P1;SDS_P2;PMS_P1;PMS_P2;Temp;Humidity;BMP_temperature;BMP_pressure;BME280_temperature;BME280_humidity;BME280_pressure;Samples;Min_cycle;Max_cycle;Signal;HPM_P1;HPM_P2
2021/01/01 00:00:27;;;;;;;20.50;17.93;;;;;;;7.19;84.83;98812.87;1845507;76;22843;-57
2021/01/01 00:02:55;;;;;;;21.48;17.32;;;;;;;7.20;84.83;98818.63;1837583;76;20983;-58
2021/01/01 00:05:22;;;;;;;21.82;17.67;;;;;;;7.23;84.85;98814.43;1847413;76;20964;-58
2021/01/01 00:07:50;;;;;;;29.30;23.10;;;;;;;7.23;84.84;98807.27;1839307;76;21137;-58
2021/01/01 00:10:18;;;;;;;28.83;22.13;;;;;;;7.23;84.83;98807.27;1841402;76;21083;-56
2021/01/01 00:12:45;;;;;;;22.67;18.83;;;;;;;7.23;84.83;98804.59;1782287;78;22232;-58
2021/01/01 00:15:13;;;;;;;23.67;18.02;;;;;;;7.20;84.75;98810.59;1773106;78;21244;-57
2021/01/01 00:17:41;;;;;;;19.90;15.77;;;;;;;7.16;84.79;98803.64;1784861;79;21230;-58
2021/01/01 00:20:10;;;;;;;22.93;18.37;;;;;;;7.13;84.76;98803.81;1780952;79;21870;-59
2021/01/01 00:22:37;;;;;;;21.50;17.70;;;;;;;7.11;84.81;98799.00;1801595;78;21108;-61
2021/01/01 00:25:05;;;;;;;18.60;15.50;;;;;;;7.11;84.84;98803.87;1773344;78;21421;-57
2021/01/01 00:27:33;;;;;;;40.93;29.07;;;;;;;7.11;84.85;98797.66;1774520;79;21163;-60
2021/01/01 00:30:00;;;;;;;82.33;56.63;;;;;;;7.10;84.84;98805.29;1780299;78;21228;-58
2021/01/01 00:32:29;;;;;;;30.80;22.30;;;;;;;7.10;84.89;98795.92;1800606;78;21573;-60
2021/01/01 00:34:57;;;;;;;35.27;26.83;;;;;;;7.08;84.90;98803.15;1803745;78;21198;-58
2021/01/01 00:37:23;;;;;;;22.80;17.90;;;;;;;7.05;84.96;98786.80;1800544;78;21163;-57
2021/01/01 00:39:51;;;;;;;32.17;23.17;;;;;;;7.05;85.01;98788.61;1802459;78;21182;-58
2021/01/01 00:42:19;;;;;;;27.33;21.93;;;;;;;7.04;85.11;98789.55;1805423;78;21178;-60
2021/01/01 00:44:46;;;;;;;75.00;53.97;;;;;;;7.04;85.20;98786.88;1813869;78;21103;-57
2021/01/01 00:47:13;;;;;;;38.00;27.37;;;;;;;7.07;85.28;98785.36;1807802;78;22579;-60
2021/01/01 00:49:40;;;;;;;22.62;17.57;;;;;;;7.11;85.34;98785.62;1813744;78;21859;-58
2021/01/01 00:52:07;;;;;;;27.20;21.15;;;;;;;7.14;85.36;98785.48;1814339;78;21170;-58
2021/01/01 00:54:35;;;;;;;30.77;22.07;;;;;;;7.17;85.32;98778.14;1807350;78;21146;-57
2021/01/01 00:57:02;;;;;;;31.93;24.40;;;;;;;7.19;85.32;98773.59;1809374;78;21166;-57
2021/01/01 00:59:29;;;;;;;32.50;23.37;;;;;;;7.21;85.32;98778.41;1809108;78;21826;-57
2021/01/01 01:01:57;;;;;;;47.50;30.33;;;;;;;7.22;85.32;98768.56;1810073;78;21205;-57
2021/01/01 01:04:24;;;;;;;29.23;22.53;;;;;;;7.21;85.35;98769.03;1779637;79;21520;-58
2021/01/01 01:06:51;;;;;;;25.73;19.70;;;;;;;7.23;85.30;98764.91;1795170;78;21621;-60
2021/01/01 01:09:18;;;;;;;11.70;10.50;;;;;;;7.22;85.29;98760.53;1786296;78;21229;-57
2021/01/01 01:11:46;;;;;;;18.23;12.70;;;;;;;7.23;85.48;98762.74;1779030;78;21177;-58
2021/01/01 01:14:14;;;;;;;15.00;11.53;;;;;;;7.26;85.73;98754.54;1813755;78;21273;-57
2021/01/01 01:16:41;;;;;;;14.63;9.95;;;;;;;7.28;85.92;98745.50;1793123;78;21736;-59
2021/01/01 01:19:08;;;;;;;12.58;10.03;;;;;;;7.33;86.05;98744.77;1774326;79;21190;-57
2021/01/01 01:21:36;;;;;;;11.12;9.55;;;;;;;7.39;86.08;98743.62;1782979;78;21230;-57
2021/01/01 01:24:04;;;;;;;10.80;9.00;;;;;;;7.43;86.09;98735.33;1780520;78;21742;-57
2021/01/01 01:26:31;;;;;;;14.10;10.40;;;;;;;7.49;86.14;98741.70;1789404;78;22093;-60
2021/01/01 01:28:58;;;;;;;14.23;11.57;;;;;;;7.53;86.16;98743.77;1808981;78;21218;-60
2021/01/01 01:31:25;;;;;;;16.15;11.08;;;;;;;7.56;86.19;98738.26;1810918;78;21406;-58
2021/01/01 01:33:53;;;;;;;21.20;14.33;;;;;;;7.58;86.21;98741.23;1812780;78;21233;-58
2021/01/01 01:36:20;;;;;;;16.63;13.67;;;;;;;7.57;86.19;98738.15;1782788;79;21201;-58
2021/01/01 01:38:47;;;;;;;14.07;12.10;;;;;;;7.59;86.15;98731.38;1792180;79;21557;-57
2021/01/01 01:41:15;;;;;;;14.50;12.20;;;;;;;7.60;86.14;98738.00;1795201;79;21547;-58
2021/01/01 01:43:42;;;;;;;13.85;10.05;;;;;;;7.63;86.16;98734.78;1798853;79;22217;-57
2021/01/01 01:46:09;;;;;;;11.97;10.50;;;;;;;7.64;86.15;98728.48;1779951;78;21578;-57
2021/01/01 01:48:37;;;;;;;13.62;10.25;;;;;;;7.65;86.11;98725.73;1792132;78;21149;-60
2021/01/01 01:51:09;;;;;;;12.78;10.45;;;;;;;7.66;86.07;98721.20;1781623;78;21444;-59
2021/01/01 01:53:43;;;;;;;14.23;11.95;;;;;;;7.68;86.04;98720.66;1776307;80;21817;-58
2021/01/01 01:56:11;;;;;;;14.30;11.53;;;;;;;7.67;86.03;98718.45;1783968;78;21179;-57
2021/01/01 01:58:39;;;;;;;15.30;12.18;;;;;;;7.67;85.99;98714.44;1785026;78;21162;-58
2021/01/01 02:01:06;;;;;;;18.65;13.50;;;;;;;7.65;86.00;98708.79;1811111;78;21793;-58
2021/01/01 02:03:34;;;;;;;15.03;12.25;;;;;;;7.65;85.96;98699.42;1809091;78;21209;-61
2021/01/01 02:06:01;;;;;;;15.48;13.62;;;;;;;7.66;85.95;98705.13;1779926;78;21210;-59
2021/01/01 02:08:29;;;;;;;17.40;12.30;;;;;;;7.64;85.92;98702.56;1807417;78;21188;-58
2021/01/01 02:10:58;;;;;;;14.20;12.23;;;;;;;7.64;85.94;98697.20;1786016;78;21166;-57
2021/01/01 02:13:25;;;;;;;16.65;12.37;;;;;;;7.64;85.99;98692.33;1793230;78;21095;-59
2021/01/01 02:15:52;;;;;;;14.98;12.47;;;;;;;7.65;85.95;98702.09;1777515;80;21537;-60
2021/01/01 02:18:38;;;;;;;15.15;12.68;;;;;;;7.66;85.92;98695.77;1781937;78;21223;-58
2021/01/01 02:21:07;;;;;;;19.80;13.78;;;;;;;7.65;85.89;98690.91;1778077;78;21146;-59
2021/01/01 02:23:34;;;;;;;18.10;14.80;;;;;;;7.64;85.77;98689.64;1789098;78;21122;-58
2021/01/01 02:26:02;;;;;;;15.07;13.43;;;;;;;7.59;85.69;98689.40;1775402;78;21202;-59
2021/01/01 02:28:29;;;;;;;19.53;15.23;;;;;;;7.53;85.64;98681.70;1809821;78;21617;-58
2021/01/01 02:30:57;;;;;;;19.65;14.68;;;;;;;7.50;85.64;98675.16;1774675;80;21159;-57
2021/01/01 02:33:24;;;;;;;19.55;16.45;;;;;;;7.48;85.62;98682.90;1783630;79;21159;-60
2021/01/01 02:35:52;;;;;;;19.52;15.85;;;;;;;7.46;85.62;98680.77;1798868;79;21818;-57
2021/01/01 02:38:19;;;;;;;23.85;15.95;;;;;;;7.45;85.60;98687.06;1770739;80;21202;-59
2021/01/01 02:40:46;;;;;;;20.17;16.13;;;;;;;7.43;85.56;98679.11;1765582;80;21601;-57
2021/01/01 02:43:13;;;;;;;22.82;16.77;;;;;;;7.42;85.44;98674.70;1811893;77;21593;-58
2021/01/01 02:45:40;;;;;;;23.38;17.20;;;;;;;7.38;85.47;98666.92;1809939;78;21186;-57
2021/01/01 02:48:14;;;;;;;23.20;17.73;;;;;;;7.35;85.46;98658.56;1811105;78;21592;-58
2021/01/01 02:50:41;;;;;;;23.70;17.70;;;;;;;7.30;85.44;98651.27;1807106;78;21579;-60
2021/01/01 02:53:11;;;;;;;21.20;17.07;;;;;;;7.29;85.39;98659.37;1812298;78;21358;-59
2021/01/01 02:55:39;;;;;;;20.13;16.73;;;;;;;7.27;85.36;98657.23;1811036;78;21298;-61
2021/01/01 02:58:07;;;;;;;22.25;17.10;;;;;;;7.22;85.38;98648.12;1808762;78;21198;-61
2021/01/01 03:00:38;;;;;;;21.07;16.30;;;;;;;7.21;85.39;98645.05;1809954;78;21174;-61
2021/01/01 03:03:05;;;;;;;19.67;16.13;;;;;;;7.19;85.40;98649.14;1774438;78;21789;-61
2021/01/01 03:05:34;;;;;;;21.25;16.10;;;;;;;7.19;85.39;98642.45;1772191;80;21196;-61
2021/01/01 03:08:01;;;;;;;21.00;17.17;;;;;;;7.19;85.34;98642.45;1812575;78;21210;-60
2021/01/01 03:10:28;;;;;;;21.87;17.80;;;;;;;7.19;85.33;98646.94;1784545;79;21146;-60
2021/01/01 03:12:55;;;;;;;26.03;18.50;;;;;;;7.15;85.29;98644.01;1804656;78;21736;-60
2021/01/01 03:15:23;;;;;;;25.70;18.70;;;;;;;7.10;85.29;98630.02;1793779;78;21205;-61
2021/01/01 03:17:50;;;;;;;20.10;16.62;;;;;;;7.07;85.26;98633.70;1792746;78;22256;-60
2021/01/01 03:20:17;;;;;;;24.70;17.50;;;;;;;7.05;85.29;98628.93;1812414;78;21495;-61
2021/01/01 03:22:44;;;;;;;20.92;15.03;;;;;;;7.06;85.37;98632.47;1789569;78;21170;-60
2021/01/01 03:25:12;;;;;;;23.57;16.83;;;;;;;7.07;85.38;98623.47;1783009;78;21178;-60
2021/01/01 03:27:39;;;;;;;20.60;15.70;;;;;;;7.07;85.41;98617.65;1792360;78;21416;-61
2021/01/01 03:30:08;;;;;;;18.80;15.37;;;;;;;7.11;85.42;98615.22;1814333;78;21198;-61
2021/01/01 03:32:36;;;;;;;23.15;16.80;;;;;;;7.14;85.43;98607.52;1791745;78;21208;-61
2021/01/01 03:35:06;;;;;;;25.00;17.37;;;;;;;7.17;85.44;98601.98;1788681;78;21581;-60
2021/01/01 03:37:36;;;;;;;26.47;18.87;;;;;;;7.18;85.42;98604.58;1814646;78;21272;-61
2021/01/01 03:40:05;;;;;;;24.43;17.67;;;;;;;7.16;85.42;98612.29;1790947;78;21166;-61
2021/01/01 03:42:32;;;;;;;26.13;18.83;;;;;;;7.15;85.43;98604.73;1812684;78;21612;-61
2021/01/01 03:45:01;;;;;;;22.83;15.33;;;;;;;7.16;85.46;98601.59;1782750;79;21218;-60
2021/01/01 03:47:28;;;;;;;25.33;16.83;;;;;;;7.16;85.48;98606.47;1800485;78;21507;-60
2021/01/01 03:49:55;;;;;;;21.57;16.60;;;;;;;7.18;85.56;98607.73;1779805;78;21222;-60
2021/01/01 03:52:22;;;;;;;21.33;14.77;;;;;;;7.19;85.57;98598.29;1784822;78;21161;-60
2021/01/01 03:54:49;;;;;;;20.40;14.67;;;;;;;7.23;85.59;98607.00;1808965;78;22517;-61
2021/01/01 03:57:16;;;;;;;19.85;14.25;;;;;;;7.26;85.57;98601.50;1782101;78;21238;-61
2021/01/01 03:59:44;;;;;;;21.03;14.70;;;;;;;7.29;85.53;98587.97;1802020;78;21601;-60
2021/01/01 04:02:11;;;;;;;20.17;15.72;;;;;;;7.31;85.49;98579.86;1778036;78;21127;-62
2021/01/01 04:04:38;;;;;;;19.47;15.87;;;;;;;7.31;85.48;98570.02;1775473;78;21079;-61
2021/01/01 04:07:05;;;;;;;17.33;14.30;;;;;;;7.30;85.44;98558.92;1784551;78;21213;-60
2021/01/01 04:09:33;;;;;;;19.97;13.93;;;;;;;7.31;85.40;98577.19;1788696;78;21637;-61
2021/01/01 04:12:01;;;;;;;14.27;11.70;;;;;;;7.32;85.33;98575.73;1775409;78;21625;-60
2021/01/01 04:14:28;;;;;;;20.20;12.77;;;;;;;7.31;85.31;98574.03;1801030;78;21202;-61
2021/01/01 04:16:55;;;;;;;15.60;12.23;;;;;;;7.30;85.29;98570.96;1804328;78;21571;-60
2021/01/01 04:19:22;;;;;;;20.87;13.50;;;;;;;7.31;85.28;98559.78;1758264;78;22118;-61
2021/01/01 04:21:49;;;;;;;19.60;12.77;;;;;;;7.34;85.18;98556.92;1780433;79;21581;-60
2021/01/01 04:24:17;;;;;;;16.67;12.68;;;;;;;7.34;85.12;98555.11;1782973;79;21175;-61
2021/01/01 04:26:45;;;;;;;18.07;13.70;;;;;;;7.34;85.11;98552.91;1781742;79;21194;-61
2021/01/01 04:29:12;;;;;;;13.30;10.67;;;;;;;7.32;85.04;98558.81;1780754;79;21156;-63
2021/01/01 04:31:39;;;;;;;13.48;12.07;;;;;;;7.31;85.01;98548.60;1803585;78;21226;-60
2021/01/01 04:34:07;;;;;;;13.15;9.70;;;;;;;7.31;84.97;98556.63;1781694;78;21937;-60
2021/01/01 04:36:34;;;;;;;8.93;8.13;;;;;;;7.30;84.96;98558.92;1772883;78;21221;-60
2021/01/01 04:39:02;;;;;;;12.20;9.48;;;;;;;7.31;84.94;98553.95;1804317;78;21692;-60
2021/01/01 04:41:32;;;;;;;13.18;8.88;;;;;;;7.31;84.96;98544.59;1807538;78;21558;-61
2021/01/01 04:43:59;;;;;;;15.38;11.10;;;;;;;7.34;84.89;98543.53;1788353;78;21262;-61
2021/01/01 04:46:26;;;;;;;11.75;9.28;;;;;;;7.34;84.83;98530.16;1788936;78;21930;-61
2021/01/01 04:48:53;;;;;;;12.53;10.50;;;;;;;7.33;84.82;98531.96;1776716;78;21187;-61
2021/01/01 04:51:21;;;;;;;11.20;8.35;;;;;;;7.31;84.82;98539.23;1808345;78;21158;-60
2021/01/01 04:53:48;;;;;;;10.50;8.77;;;;;;;7.31;84.80;98543.72;1805420;78;21230;-60
2021/01/01 04:56:16;;;;;;;11.50;7.37;;;;;;;7.31;84.72;98566.48;1789017;78;22072;-61
2021/01/01 04:58:43;;;;;;;10.80;7.13;;;;;;;7.28;84.78;98556.79;1773293;80;21217;-62
2021/01/01 05:03:38;;;;;;;10.53;7.60;;;;;;;7.30;84.87;98540.18;1752222;78;22993;-64
2021/01/01 05:06:05;;;;;;;8.33;7.30;;;;;;;7.26;84.87;98533.72;1731037;80;21480;-62
2021/01/01 05:08:33;;;;;;;9.50;7.03;;;;;;;7.23;84.84;98537.92;1729151;80;21213;-62
2021/01/01 05:12:07;;;;;;;8.87;5.80;;;;;;;7.27;84.90;98536.79;1794690;78;22637;-61
2021/01/01 05:14:34;;;;;;;8.68;5.62;;;;;;;7.23;84.91;98534.73;1715418;81;21076;-61
2021/01/01 05:17:01;;;;;;;7.43;5.90;;;;;;;7.23;84.95;98543.63;1719250;81;21090;-60
2021/01/01 05:19:42;;;;;;;11.43;6.37;;;;;;;7.26;84.95;98532.38;1740707;81;21166;-60
2021/01/01 05:22:11;;;;;;;6.87;5.17;;;;;;;7.26;84.93;98543.09;1742402;81;21159;-61
2021/01/01 05:24:46;;;;;;;6.05;5.45;;;;;;;7.27;84.88;98539.47;1714622;82;21174;-62
2021/01/01 05:27:17;;;;;;;8.00;5.57;;;;;;;7.28;84.88;98537.19;1734061;80;21077;-62
2021/01/01 05:29:54;;;;;;;8.87;5.63;;;;;;;7.28;84.89;98543.88;1720572;81;21104;-60
2021/01/01 05:32:24;;;;;;;7.28;6.08;;;;;;;7.29;84.89;98545.61;1743552;81;21012;-61
2021/01/01 05:34:52;;;;;;;6.70;5.73;;;;;;;7.30;84.90;98536.16;1714335;82;21239;-61
2021/01/01 05:37:33;;;;;;;9.47;6.93;;;;;;;7.31;84.83;98537.03;1715958;81;21586;-60
2021/01/01 05:40:52;;;;;;;7.40;5.20;;;;;;;7.30;84.86;98535.30;1790111;77;23267;-61
2021/01/01 05:43:21;;;;;;;8.33;5.77;;;;;;;7.25;84.91;98535.53;1754482;80;21784;-61
2021/01/01 05:45:49;;;;;;;12.20;6.03;;;;;;;7.27;84.90;98528.29;1754013;80;21447;-60
2021/01/01 05:48:17;;;;;;;12.33;5.93;;;;;;;7.26;84.91;98529.23;1756849;80;21088;-60
2021/01/01 05:53:32;;;;;;;10.57;7.70;;;;;;;7.29;84.98;98524.20;1799127;78;24213;-61
2021/01/01 05:56:08;;;;;;;11.73;7.23;;;;;;;7.24;84.98;98512.38;1718472;81;21049;-60
2021/01/01 05:58:36;;;;;;;11.40;7.90;;;;;;;7.23;85.03;98524.03;1739029;81;21627;-62
2021/01/01 06:01:57;;;;;;;9.90;7.07;;;;;;;7.27;85.04;98520.26;1811435;76;24086;-64
2021/01/01 06:04:24;;;;;;;9.73;7.00;;;;;;;7.23;85.08;98519.19;1803190;77;21786;-64
2021/01/01 06:06:52;;;;;;;14.87;7.90;;;;;;;7.23;85.14;98523.20;1799423;77;21479;-64
2021/01/01 06:09:22;;;;;;;11.67;7.27;;;;;;;7.23;85.14;98521.36;1794363;77;21180;-64
2021/01/01 06:15:36;;;;;;;11.77;7.77;;;;;;;7.30;85.22;98519.23;1796402;78;22625;-60
2021/01/01 06:18:05;;;;;;;12.10;8.73;;;;;;;7.23;85.17;98514.66;1770176;79;21028;-61
2021/01/01 06:20:33;;;;;;;10.13;7.13;;;;;;;7.19;85.18;98516.66;1737056;81;21364;-61
2021/01/01 06:23:05;;;;;;;12.88;7.87;;;;;;;7.21;85.19;98515.25;1738620;81;21973;-64
2021/01/01 06:25:34;;;;;;;11.33;7.97;;;;;;;7.17;85.22;98517.69;1738853;81;21131;-61
2021/01/01 06:28:03;;;;;;;11.73;7.05;;;;;;;7.16;85.28;98524.84;1707786;81;21297;-61
2021/01/01 06:30:33;;;;;;;11.93;6.70;;;;;;;7.16;85.33;98518.16;1710206;82;21202;-62
2021/01/01 06:33:07;;;;;;;11.48;6.42;;;;;;;7.19;85.32;98521.15;1711798;82;21269;-61
2021/01/01 06:35:43;;;;;;;9.98;6.35;;;;;;;7.20;85.31;98522.88;1715433;82;21434;-61
2021/01/01 06:38:10;;;;;;;10.27;6.63;;;;;;;7.23;85.34;98520.52;1736383;81;20945;-62
2021/01/01 06:40:38;;;;;;;11.08;7.15;;;;;;;7.23;85.31;98520.89;1720000;81;21172;-62
2021/01/01 06:43:06;;;;;;;10.10;7.07;;;;;;;7.25;85.30;98525.30;1688252;81;21270;-61
2021/01/01 06:45:45;;;;;;;8.87;5.83;;;;;;;7.25;85.26;98525.30;1691094;82;22112;-61
2021/01/01 06:48:26;;;;;;;10.60;6.87;;;;;;;7.25;85.22;98526.63;1686094;82;22277;-61
2021/01/01 06:50:54;;;;;;;7.67;5.37;;;;;;;7.25;85.23;98527.97;1685585;82;21655;-62
2021/01/01 06:53:30;;;;;;;7.83;6.27;;;;;;;7.24;85.27;98529.78;1689947;82;21171;-60
2021/01/01 06:56:10;;;;;;;9.93;5.23;;;;;;;7.23;85.24;98536.08;1691319;82;21192;-61
2021/01/01 06:58:38;;;;;;;7.35;5.75;;;;;;;7.23;85.32;98538.75;1687683;82;22195;-62
2021/01/01 07:01:17;;;;;;;8.80;5.43;;;;;;;7.23;85.33;98528.05;1660743;82;21175;-62
2021/01/01 07:03:44;;;;;;;5.13;4.60;;;;;;;7.23;85.38;98536.95;1688734;82;21246;-60
2021/01/01 07:06:19;;;;;;;5.97;4.63;;;;;;;7.25;85.40;98534.19;1688848;82;21223;-61
2021/01/01 07:08:47;;;;;;;5.13;3.60;;;;;;;7.26;85.39;98539.94;1687813;82;21234;-61
2021/01/01 07:11:34;;;;;;;5.30;4.53;;;;;;;7.28;85.41;98538.52;1690076;82;21246;-59
2021/01/01 07:14:09;;;;;;;7.33;3.87;;;;;;;7.29;85.42;98535.77;1682355;82;21231;-63
2021/01/01 07:19:21;;;;;;;9.10;5.17;;;;;;;7.38;85.42;98541.09;1811734;76;23331;-60
2021/01/01 07:21:48;;;;;;;8.35;5.37;;;;;;;7.34;85.43;98540.39;1783216;77;21056;-60
2021/01/01 07:24:17;;;;;;;7.83;5.00;;;;;;;7.35;85.45;98539.91;1782227;77;23581;-61
2021/01/01 07:26:44;;;;;;;6.92;4.70;;;;;;;7.35;85.48;98542.12;1741640;77;21318;-62
2021/01/01 07:29:11;;;;;;;7.40;5.10;;;;;;;7.36;85.54;98539.84;1787370;77;21095;-60
2021/01/01 07:31:38;;;;;;;5.60;4.03;;;;;;;7.37;85.60;98544.25;1782832;77;22457;-63
2021/01/01 07:34:09;;;;;;;4.40;3.90;;;;;;;7.37;85.67;98552.28;1781093;77;21064;-60
2021/01/01 07:36:36;;;;;;;6.90;3.62;;;;;;;7.41;85.72;98551.62;1786890;77;21356;-64
2021/01/01 07:39:05;;;;;;;7.50;3.83;;;;;;;7.44;85.80;98561.70;1791852;77;22200;-60
2021/01/01 07:41:32;;;;;;;6.50;4.70;;;;;;;7.47;85.85;98562.88;1780213;77;21123;-61
2021/01/01 07:43:59;;;;;;;6.97;4.67;;;;;;;7.51;85.93;98564.42;1756382;79;21659;-63
2021/01/01 07:46:29;;;;;;;8.93;4.67;;;;;;;7.56;85.98;98576.25;1759390;79;21111;-64
2021/01/01 07:48:57;;;;;;;7.12;4.85;;;;;;;7.59;86.03;98573.38;1761152;79;21186;-62
2021/01/01 07:51:24;;;;;;;5.75;4.33;;;;;;;7.64;86.05;98573.14;1758554;79;22233;-63
2021/01/01 07:53:59;;;;;;;7.33;4.42;;;;;;;7.69;86.10;98579.09;1755407;79;21202;-63
2021/01/01 07:56:27;;;;;;;6.33;3.97;;;;;;;7.73;86.12;98572.64;1755104;79;21735;-61
2021/01/01 07:58:54;;;;;;;5.45;4.03;;;;;;;7.79;86.15;98566.93;1756201;79;21186;-60
2021/01/01 08:01:22;;;;;;;5.97;3.53;;;;;;;7.86;86.16;98575.02;1753507;79;21455;-61
2021/01/01 08:03:49;;;;;;;5.05;3.62;;;;;;;7.90;86.22;98572.56;1750746;79;21218;-59
2021/01/01 08:06:17;;;;;;;5.83;3.50;;;;;;;7.96;86.21;98584.27;1757633;79;21171;-61
2021/01/01 08:08:44;;;;;;;5.42;4.33;;;;;;;8.00;86.19;98584.47;1758264;79;21218;-60
2021/01/01 08:11:11;;;;;;;5.50;3.05;;;;;;;8.04;86.17;98576.66;1767967;79;21227;-60
2021/01/01 08:13:38;;;;;;;5.83;3.10;;;;;;;8.08;86.18;98582.22;1759756;79;21202;-60
2021/01/01 08:16:16;;;;;;;6.12;3.35;;;;;;;8.12;86.14;98586.47;1759513;79;21226;-60
2021/01/01 08:18:44;;;;;;;4.42;2.58;;;;;;;8.15;86.11;98584.97;1750057;79;21171;-61
2021/01/01 08:21:11;;;;;;;9.95;3.92;;;;;;;8.18;86.11;98588.80;1752620;79;21219;-63
2021/01/01 08:23:52;;;;;;;3.77;2.92;;;;;;;8.22;86.08;98595.73;1748010;79;22289;-61
2021/01/01 08:26:19;;;;;;;4.95;2.67;;;;;;;8.26;86.08;98595.05;1713790;81;21186;-62
2021/01/01 08:28:49;;;;;;;4.45;2.47;;;;;;;8.29;86.06;98595.76;1724820;79;21204;-61
2021/01/01 08:31:19;;;;;;;4.62;2.17;;;;;;;8.34;86.02;98596.86;1748338;79;21203;-63
2021/01/01 08:33:46;;;;;;;6.28;2.92;;;;;;;8.38;85.98;98605.59;1730165;79;20975;-60
2021/01/01 08:36:13;;;;;;;5.20;2.67;;;;;;;8.42;85.97;98605.83;1753404;79;21691;-61
2021/01/01 08:38:44;;;;;;;4.28;1.90;;;;;;;8.46;85.95;98605.55;1753988;79;21653;-61
2021/01/01 08:41:17;;;;;;;2.50;1.82;;;;;;;8.51;85.87;98614.17;1750933;79;21240;-59
2021/01/01 08:43:45;;;;;;;2.37;1.90;;;;;;;8.55;85.83;98617.09;1748294;79;21167;-62
2021/01/01 08:46:16;;;;;;;2.17;1.72;;;;;;;8.60;85.80;98619.48;1747460;79;21164;-60
2021/01/01 08:48:44;;;;;;;2.75;1.90;;;;;;;8.66;85.74;98631.22;1750895;79;21167;-61
2021/01/01 08:51:11;;;;;;;2.70;1.72;;;;;;;8.69;85.63;98632.36;1747610;79;22027;-63
2021/01/01 08:53:39;;;;;;;2.05;1.27;;;;;;;8.72;85.59;98638.43;1752015;79;21641;-60
2021/01/01 08:56:07;;;;;;;2.77;2.25;;;;;;;8.77;85.51;98639.97;1745301;79;21214;-60
2021/01/01 08:58:34;;;;;;;2.40;1.55;;;;;;;8.79;85.48;98646.98;1754084;79;21191;-61
2021/01/01 09:01:16;;;;;;;1.90;1.35;;;;;;;8.80;85.34;98646.03;1749986;79;21208;-63
2021/01/01 09:03:44;;;;;;;1.20;1.10;;;;;;;8.82;85.31;98643.27;1747536;79;22112;-60
2021/01/01 09:06:17;;;;;;;1.62;1.10;;;;;;;8.85;85.21;98645.27;1749004;79;21179;-62
2021/01/01 09:08:45;;;;;;;2.58;1.10;;;;;;;8.88;85.14;98646.92;1751286;79;21162;-62
2021/01/01 09:11:33;;;;;;;1.77;0.82;;;;;;;8.89;85.05;98653.55;1751608;79;21168;-61
2021/01/01 09:14:04;;;;;;;1.72;1.62;;;;;;;8.90;85.00;98657.09;1696376;82;21178;-64
2021/01/01 09:16:33;;;;;;;4.73;0.80;;;;;;;8.93;84.92;98656.92;1660789;84;21682;-60
2021/01/01 09:19:09;;;;;;;1.37;0.90;;;;;;;8.94;84.85;98663.99;1690422;82;21677;-61
2021/01/01 09:21:37;;;;;;;1.47;0.62;;;;;;;8.94;84.76;98665.34;1666662;84;22264;-63
2021/01/01 09:24:05;;;;;;;1.65;0.72;;;;;;;8.95;84.66;98663.91;1689248;82;21173;-61
2021/01/01 09:26:34;;;;;;;1.35;0.75;;;;;;;8.94;84.58;98665.34;1694904;82;21485;-62
2021/01/01 09:29:06;;;;;;;1.27;0.60;;;;;;;8.93;84.46;98669.00;1692362;82;21263;-61
2021/01/01 09:31:36;;;;;;;0.90;0.90;;;;;;;8.95;84.40;98665.73;1689222;82;21151;-65
2021/01/01 09:34:08;;;;;;;0.90;0.60;;;;;;;8.95;84.32;98662.56;1694612;82;21612;-61
2021/01/01 09:36:39;;;;;;;1.82;0.60;;;;;;;8.95;84.24;98660.36;1692249;82;21157;-61
2021/01/01 09:39:08;;;;;;;0.68;0.65;;;;;;;8.97;84.21;98667.85;1693393;82;20996;-62
2021/01/01 09:41:36;;;;;;;0.85;0.70;;;;;;;8.97;84.19;98668.72;1692545;82;21602;-61
2021/01/01 09:44:04;;;;;;;1.10;0.72;;;;;;;8.98;84.18;98667.77;1689966;82;21234;-63
2021/01/01 09:46:31;;;;;;;1.67;1.00;;;;;;;8.99;84.16;98664.12;1692615;82;21189;-62
2021/01/01 09:48:59;;;;;;;1.00;1.00;;;;;;;9.00;84.16;98656.47;1694654;82;21222;-62
2021/01/01 09:51:26;;;;;;;1.15;1.05;;;;;;;8.99;84.15;98658.77;1696702;82;21190;-62
2021/01/01 09:53:53;;;;;;;3.80;1.15;;;;;;;8.99;84.11;98665.47;1693847;82;22265;-63
2021/01/01 09:56:20;;;;;;;0.90;0.60;;;;;;;8.99;84.03;98665.95;1694772;82;22025;-62
2021/01/01 09:58:47;;;;;;;2.15;0.60;;;;;;;9.01;83.99;98658.67;1691533;82;21229;-62
2021/01/01 10:01:17;;;;;;;0.60;0.60;;;;;;;9.00;83.94;98667.68;1692873;82;22238;-62
2021/01/01 10:03:44;;;;;;;1.62;0.68;;;;;;;9.02;83.97;98665.27;1667542;83;21151;-60
2021/01/01 10:06:13;;;;;;;0.65;0.60;;;;;;;9.05;83.94;98676.31;1693688;82;21271;-65
2021/01/01 10:08:40;;;;;;;1.92;0.60;;;;;;;9.06;83.83;98672.20;1693951;82;21237;-62
2021/01/01 10:11:13;;;;;;;1.32;0.70;;;;;;;9.05;83.76;98673.16;1694100;82;22163;-62
2021/01/01 10:13:40;;;;;;;0.50;0.50;;;;;;;9.07;83.73;98675.75;1631811;85;21187;-62
2021/01/01 10:16:09;;;;;;;0.82;0.40;;;;;;;9.09;83.72;98680.56;1633408;85;21544;-61
2021/01/01 10:18:37;;;;;;;2.83;0.65;;;;;;;9.11;83.73;98676.81;1680848;82;21216;-62
2021/01/01 10:21:05;;;;;;;0.80;0.60;;;;;;;9.14;83.73;98676.25;1645059;83;21792;-61
2021/01/01 10:23:32;;;;;;;0.72;0.62;;;;;;;9.14;83.67;98679.80;1682234;82;21214;-61
2021/01/01 10:25:59;;;;;;;0.60;0.60;;;;;;;9.16;83.68;98685.08;1685681;82;21199;-60
2021/01/01 10:28:26;;;;;;;0.90;0.80;;;;;;;9.17;83.73;98681.45;1686091;82;21502;-62
2021/01/01 10:30:53;;;;;;;1.32;0.90;;;;;;;9.18;83.66;98685.86;1684713;83;21397;-63
2021/01/01 10:33:20;;;;;;;1.20;0.85;;;;;;;9.18;83.63;98680.49;1685885;83;21797;-61
2021/01/01 10:35:48;;;;;;;1.00;0.72;;;;;;;9.17;83.56;98685.47;1687506;83;21168;-64
2021/01/01 10:38:15;;;;;;;1.85;0.72;;;;;;;9.16;83.51;98688.63;1686107;83;21644;-61
2021/01/01 10:40:43;;;;;;;1.92;0.70;;;;;;;9.17;83.55;98690.84;1688105;83;21282;-62
2021/01/01 10:43:12;;;;;;;2.45;0.80;;;;;;;9.18;83.53;98693.92;1690906;83;21262;-62
2021/01/01 10:45:39;;;;;;;0.90;0.70;;;;;;;9.17;83.47;98690.84;1677374;82;21511;-60
2021/01/01 10:48:07;;;;;;;1.10;0.80;;;;;;;9.17;83.48;98691.71;1688519;83;21191;-61
2021/01/01 10:50:34;;;;;;;0.90;0.80;;;;;;;9.18;83.39;98694.78;1685660;83;21504;-62
2021/01/01 10:53:05;;;;;;;0.98;0.80;;;;;;;9.20;83.40;98698.69;1681665;84;21716;-61
2021/01/01 10:55:34;;;;;;;0.95;0.72;;;;;;;9.20;83.37;98698.69;1684427;83;21895;-62
2021/01/01 10:58:01;;;;;;;1.12;1.07;;;;;;;9.19;83.34;98702.33;1682196;83;21538;-64
2021/01/01 11:00:29;;;;;;;1.52;0.70;;;;;;;9.18;83.29;98706.87;1687606;83;21557;-61
2021/01/01 11:02:56;;;;;;;0.80;0.60;;;;;;;9.18;83.16;98701.50;1683849;83;21209;-61
2021/01/01 11:05:26;;;;;;;1.02;0.80;;;;;;;9.19;83.08;98709.04;1682511;82;21124;-62
2021/01/01 11:07:53;;;;;;;0.80;0.60;;;;;;;9.19;83.08;98709.04;1687134;83;21633;-61
2021/01/01 11:10:22;;;;;;;1.65;0.70;;;;;;;9.19;83.02;98707.70;1688291;83;21268;-61
2021/01/01 11:12:49;;;;;;;1.10;0.70;;;;;;;9.18;82.98;98712.23;1684443;83;21613;-61
2021/01/01 12:19:28;;;;;;;1.00;0.68;;;;;;;9.18;82.95;98709.55;1657037;84;21197;-61
2021/01/01 12:24:25;;;;;;;2.85;2.65;;;;;;;9.02;82.32;98755.66;1846518;76;21036;-62
2021/01/01 12:26:45;;;;;;;2.77;2.58;;;;;;;8.99;82.34;98758.55;1844502;76;21167;-61
2021/01/01 12:29:13;;;;;;;2.67;2.47;;;;;;;8.98;82.31;98758.16;1845600;76;21129;-61
2021/01/01 12:31:40;;;;;;;2.72;2.37;;;;;;;8.99;82.28;98770.62;1845327;76;21190;-61
2021/01/01 12:34:07;;;;;;;3.00;2.08;;;;;;;8.99;82.28;98782.23;1846948;76;22575;-61
2021/01/01 12:36:36;;;;;;;3.08;2.75;;;;;;;8.97;82.07;98780.10;1819138;76;21090;-62
2021/01/01 12:39:03;;;;;;;3.65;3.35;;;;;;;8.97;82.06;98785.47;1845801;76;21168;-62
2021/01/01 12:41:31;;;;;;;5.20;3.70;;;;;;;8.96;82.01;98794.47;1846782;76;21211;-62
2021/01/01 12:43:59;;;;;;;6.25;3.60;;;;;;;8.94;81.95;98788.79;1847602;76;21128;-62
2021/01/01 12:46:26;;;;;;;3.00;2.80;;;;;;;8.93;81.90;98789.27;1845532;76;23559;-61
2021/01/01 12:48:54;;;;;;;2.80;2.60;;;;;;;8.90;81.86;98793.95;1841632;76;21629;-61
2021/01/01 12:51:21;;;;;;;3.77;3.50;;;;;;;8.90;81.83;98800.20;1847328;75;21171;-61
2021/01/01 12:53:48;;;;;;;3.77;3.47;;;;;;;8.90;81.78;98800.20;1846599;77;21666;-61
2021/01/01 12:56:17;;;;;;;3.25;2.95;;;;;;;8.87;81.74;98802.17;1849882;75;21608;-62
2021/01/01 12:58:44;;;;;;;4.83;3.80;;;;;;;8.86;81.73;98805.33;1845721;76;21161;-61
2021/01/01 13:01:11;;;;;;;4.55;4.28;;;;;;;8.84;81.66;98805.05;1775155;78;21206;-61